In Rescue
 
Open Full Screen Window  High Contrast Mode
Wind Gusting 00 knots
06
July 23, 2019 12:43 AM CDT
Weather Information
Wind Direction
  290 °
Wind Speed
  06 kt (7 mph)
Wind Gust
  00 kt (0 mph)
Altimeter
30.21 in
Visibility
10 SM
Temperature
20° C
68° F
Dewpoint
14° C
57° F
Humidity
69%
1hr Rain Fall
00.00 in.
24hr Rain Fall
00.00 in.
Sky Condition
Missing
VFR

METAR KVWU 230543Z AUTO 29006KT 10SM 20/14 A3021 RMK AO2

FAA Disclaimer: The data displayed is for advisory purposes only and is not to be used for flight planning or operations.
Missing Cloud Data